40.0°F
Current conditions from King Hill
Updated every 5 minutes
 
  Thursday April 24, 2014

Station Historical Data
Daily Summary for July 21, 2011 Units:  Metric    English   Both
« Previous Day
Next Day »
Daily Weekly Monthly Yearly Custom
  High: Low: Average:
Temperature: 33.8 °C 21.7 °C 26.7 °C
Dew Point: 25.9 °C 18.3 °C 21.8 °C
Humidity: 83% 57% 75%
Wind Speed: 19.3km/h 1.6km/h 6.3km/h
Wind Gust: 40.2km/h - -
Wind- - SW
Pressure: 1005.6 hPa 998.5 hPa -
Precipitation: 0 mm    
Historical Graphs
 
 
Tabular Data for July 21, 2011
Time Temperature Dew Point Pressure Wind Wind Speed Wind Gust Humidity Daily Rainfall
00:00 22.6 °C 18.3 °C 1005.6 hPa SSW 1.6 km/h 9.7 km/h 77% 0 mm
00:05 22.5 °C 18.5 °C 1005.6 hPa SSW 3.2 km/h 11.3 km/h 78% 0 mm
00:10 22.4 °C 18.4 °C 1005.3 hPa SSW 1.6 km/h 11.3 km/h 78% 0 mm
00:15 22.4 °C 18.6 °C 1005.6 hPa SSW 4.8 km/h 11.3 km/h 79% 0 mm
00:25 22.2 °C 18.6 °C 1005.3 hPa SW 3.2 km/h 11.3 km/h 80% 0 mm
00:30 22.1 °C 18.5 °C 1005.3 hPa SW 3.2 km/h 11.3 km/h 80% 0 mm
00:35 22.1 °C 18.3 °C 1005.3 hPa SW 1.6 km/h 11.3 km/h 79% 0 mm
00:40 22.1 °C 18.3 °C 1005.3 hPa SSW 3.2 km/h 11.3 km/h 79% 0 mm
00:45 22.2 °C 18.4 °C 1005 hPa SW 6.4 km/h 12.9 km/h 79% 0 mm
00:50 22.3 °C 18.3 °C 1005 hPa SSW 3.2 km/h 12.9 km/h 78% 0 mm
01:00 22.5 °C 18.5 °C 1005 hPa SSW 3.2 km/h 16.1 km/h 78% 0 mm
01:05 22.5 °C 18.5 °C 1004.6 hPa SSW 4.8 km/h 14.5 km/h 78% 0 mm
01:10 22.4 °C 18.4 °C 1004.6 hPa SW 1.6 km/h 11.3 km/h 78% 0 mm
01:15 22.3 °C 18.4 °C 1004.6 hPa SSW 1.6 km/h 8 km/h 79% 0 mm
01:20 22.2 °C 18.6 °C 1004.6 hPa SSW 3.2 km/h 9.7 km/h 80% 0 mm
01:25 22.1 °C 18.4 °C 1004.6 hPa SSW 3.2 km/h 9.7 km/h 80% 0 mm
01:30 22.1 °C 18.7 °C 1004.6 hPa SSW 4.8 km/h 11.3 km/h 81% 0 mm
01:35 22.1 °C 18.7 °C 1004.6 hPa SW 1.6 km/h 12.9 km/h 81% 0 mm
01:40 22.2 °C 18.8 °C 1004.6 hPa SSW 1.6 km/h 12.9 km/h 81% 0 mm
01:45 22.2 °C 18.8 °C 1004.6 hPa SW 1.6 km/h 11.3 km/h 81% 0 mm
01:50 22.2 °C 18.8 °C 1004.6 hPa SW 1.6 km/h 11.3 km/h 81% 0 mm
01:55 22.1 °C 18.7 °C 1004.6 hPa Calm   9.7 km/h 81% 0 mm
02:00 21.9 °C 18.7 °C 1005 hPa SW 1.6 km/h 11.3 km/h 82% 0 mm
02:10 21.8 °C 18.6 °C 1005 hPa Calm   9.7 km/h 82% 0 mm
02:15 21.8 °C 18.6 °C 1004.6 hPa Calm   8 km/h 82% 0 mm
02:25 21.7 °C 18.5 °C 1004.6 hPa SW 4.8 km/h 11.3 km/h 82% 0 mm
02:30 21.8 °C 18.6 °C 1004.6 hPa Calm   11.3 km/h 82% 0 mm
02:35 21.9 °C 18.7 °C 1004.6 hPa SSW 4.8 km/h 11.3 km/h 82% 0 mm
02:40 22 °C 18.8 °C 1004.6 hPa SW 3.2 km/h 12.9 km/h 82% 0 mm
02:45 22.1 °C 18.8 °C 1004.6 hPa SSW 3.2 km/h 12.9 km/h 82% 0 mm
02:50 22.1 °C 18.7 °C 1004.6 hPa SW 1.6 km/h 11.3 km/h 81% 0 mm
02:55 22.1 °C 18.7 °C 1004.6 hPa SSW 3.2 km/h 12.9 km/h 81% 0 mm
03:00 22.2 °C 18.8 °C 1004.6 hPa SW 1.6 km/h 12.9 km/h 81% 0 mm
03:05 22.2 °C 18.8 °C 1004.6 hPa SSW 6.4 km/h 12.9 km/h 81% 0 mm
03:10 22.3 °C 18.9 °C 1004.6 hPa SSW 3.2 km/h 16.1 km/h 81% 0 mm
03:15 22.4 °C 19 °C 1004.6 hPa SSW 6.4 km/h 16.1 km/h 81% 0 mm
03:20 22.5 °C 18.9 °C 1004.6 hPa SSW 6.4 km/h 16.1 km/h 80% 0 mm
03:25 22.6 °C 19 °C 1004.3 hPa SSW 6.4 km/h 16.1 km/h 80% 0 mm
03:30 22.7 °C 19.1 °C 1004.3 hPa SSW 6.4 km/h 19.3 km/h 80% 0 mm
03:40 22.7 °C 19.1 °C 1003.9 hPa SSW 6.4 km/h 16.1 km/h 80% 0 mm
03:45 22.7 °C 19.1 °C 1003.9 hPa SSW 8 km/h 16.1 km/h 80% 0 mm
03:50 22.8 °C 19.2 °C 1003.6 hPa SSW 3.2 km/h 14.5 km/h 80% 0 mm
03:55 22.8 °C 19.2 °C 1003.6 hPa SSW 6.4 km/h 17.7 km/h 80% 0 mm
04:00 22.8 °C 19.2 °C 1003.3 hPa SSW 6.4 km/h 17.7 km/h 80% 0 mm
04:10 22.8 °C 19.2 °C 1003.3 hPa SSW 8 km/h 19.3 km/h 80% 0 mm
04:15 22.8 °C 19 °C 1003.3 hPa South 4.8 km/h 19.3 km/h 79% 0 mm
04:20 22.8 °C 19 °C 1003.3 hPa SSW 6.4 km/h 17.7 km/h 79% 0 mm
04:25 22.8 °C 19 °C 1002.9 hPa Calm   19.3 km/h 79% 0 mm
04:30 22.8 °C 18.9 °C 1002.9 hPa SSW 9.7 km/h 19.3 km/h 79% 0 mm
04:35 22.7 °C 18.9 °C 1002.6 hPa SSW 3.2 km/h 19.3 km/h 79% 0 mm
04:40 22.7 °C 18.8 °C 1002.9 hPa SSW 4.8 km/h 16.1 km/h 79% 0 mm
04:45 22.6 °C 18.7 °C 1002.9 hPa SSW 3.2 km/h 12.9 km/h 79% 0 mm
04:50 22.5 °C 18.7 °C 1002.9 hPa SSW 4.8 km/h 14.5 km/h 79% 0 mm
04:55 22.5 °C 18.7 °C 1002.9 hPa SW 4.8 km/h 14.5 km/h 79% 0 mm
05:00 22.5 °C 18.5 °C 1002.9 hPa SW 3.2 km/h 14.5 km/h 78% 0 mm
05:05 22.6 °C 18.6 °C 1003.3 hPa SSW 1.6 km/h 11.3 km/h 78% 0 mm
05:10 22.6 °C 18.6 °C 1002.9 hPa SSW 3.2 km/h 11.3 km/h 78% 0 mm
05:15 22.6 °C 18.6 °C 1002.9 hPa SSW 4.8 km/h 14.5 km/h 78% 0 mm
05:20 22.7 °C 18.6 °C 1002.9 hPa SSW 4.8 km/h 16.1 km/h 78% 0 mm
05:25 22.6 °C 18.6 °C 1002.6 hPa SSW 3.2 km/h 16.1 km/h 78% 0 mm
05:30 22.4 °C 18.4 °C 1002.6 hPa SW 3.2 km/h 19.3 km/h 78% 0 mm
05:35 22.3 °C 18.3 °C 1002.6 hPa SSW 4.8 km/h 19.3 km/h 78% 0 mm
05:40 22.3 °C 18.4 °C 1002.9 hPa SSW 3.2 km/h 11.3 km/h 79% 0 mm
05:45 22.3 °C 18.4 °C 1002.6 hPa SW 6.4 km/h 14.5 km/h 79% 0 mm
05:50 22.4 °C 18.6 °C 1002.6 hPa SSW 4.8 km/h 16.1 km/h 79% 0 mm
05:55 22.5 °C 18.5 °C 1002.6 hPa SSW 4.8 km/h 16.1 km/h 78% 0 mm
06:00 22.6 °C 18.6 °C 1002.6 hPa SSW 4.8 km/h 14.5 km/h 78% 0 mm
06:05 22.6 °C 18.6 °C 1002.6 hPa SW 3.2 km/h 12.9 km/h 78% 0 mm
06:10 22.6 °C 18.7 °C 1002.6 hPa SW 3.2 km/h 12.9 km/h 79% 0 mm
06:15 22.6 °C 18.7 °C 1002.3 hPa SSW 3.2 km/h 12.9 km/h 79% 0 mm
06:20 22.6 °C 18.7 °C 1002.6 hPa SW 6.4 km/h 16.1 km/h 79% 0 mm
06:25 22.7 °C 18.9 °C 1002.3 hPa SW 11.3 km/h 20.9 km/h 79% 0 mm
06:30 22.9 °C 19.1 °C 1002.3 hPa SSW 4.8 km/h 20.9 km/h 79% 0 mm
06:35 22.9 °C 19.1 °C 1002.3 hPa SSW 9.7 km/h 20.9 km/h 79% 0 mm
06:40 23.1 °C 19.3 °C 1002.3 hPa SSW 6.4 km/h 20.9 km/h 79% 0 mm
06:45 23.2 °C 19.6 °C 1002.3 hPa SW 3.2 km/h 19.3 km/h 80% 0 mm
06:50 23.3 °C 19.6 °C 1001.9 hPa SSW 8 km/h 17.7 km/h 80% 0 mm
06:55 23.4 °C 19.7 °C 1002.3 hPa SSW 6.4 km/h 29 km/h 80% 0 mm
07:00 23.5 °C 19.8 °C 1002.3 hPa SW 8 km/h 29 km/h 80% 0 mm
07:05 23.6 °C 19.9 °C 1002.3 hPa SW 14.5 km/h 27.4 km/h 80% 0 mm
07:10 23.7 °C 20 °C 1002.3 hPa SW 6.4 km/h 27.4 km/h 80% 0 mm
07:15 23.7 °C 20 °C 1002.3 hPa SSW 8 km/h 22.5 km/h 80% 0 mm
07:20 23.7 °C 20 °C 1002.3 hPa SW 8 km/h 20.9 km/h 80% 0 mm
07:25 23.7 °C 20 °C 1002.3 hPa SSW 9.7 km/h 20.9 km/h 80% 0 mm
07:30 23.7 °C 20.3 °C 1001.9 hPa SSW 4.8 km/h 24.1 km/h 81% 0 mm
07:35 23.7 °C 20.3 °C 1001.9 hPa SW 4.8 km/h 24.1 km/h 81% 0 mm
07:40 23.8 °C 20.3 °C 1001.9 hPa SSW 8 km/h 19.3 km/h 81% 0 mm
07:45 23.8 °C 20.4 °C 1001.9 hPa SW 11.3 km/h 22.5 km/h 81% 0 mm
07:50 23.9 °C 20.4 °C 1001.9 hPa SSW 6.4 km/h 25.7 km/h 81% 0 mm
07:55 23.9 °C 20.5 °C 1001.6 hPa SW 12.9 km/h 25.7 km/h 81% 0 mm
08:05 24.2 °C 20.6 °C 1001.2 hPa SSW 11.3 km/h 25.7 km/h 80% 0 mm
08:10 24.4 °C 20.8 °C 1001.2 hPa SW 6.4 km/h 27.4 km/h 80% 0 mm
08:15 24.7 °C 21 °C 1001.6 hPa SW 6.4 km/h 27.4 km/h 80% 0 mm
08:20 24.7 °C 21.1 °C 1001.6 hPa SSW 4.8 km/h 20.9 km/h 80% 0 mm
08:25 24.7 °C 20.8 °C 1001.2 hPa SW 9.7 km/h 24.1 km/h 79% 0 mm
08:30 24.7 °C 20.8 °C 1001.2 hPa SW 8 km/h 24.1 km/h 79% 0 mm
08:35 24.6 °C 20.7 °C 1000.9 hPa SSW 12.9 km/h 29 km/h 79% 0 mm
08:40 24.6 °C 20.9 °C 1001.2 hPa SSW 9.7 km/h 29 km/h 80% 0 mm
08:45 24.7 °C 21 °C 1001.2 hPa SSW 9.7 km/h 25.7 km/h 80% 0 mm
08:50 24.9 °C 21.2 °C 1001.2 hPa SW 6.4 km/h 25.7 km/h 80% 0 mm
08:55 25.3 °C 21.4 °C 1001.2 hPa SW 9.7 km/h 25.7 km/h 79% 0 mm
09:00 25.4 °C 21.1 °C 1001.2 hPa SSW 11.3 km/h 24.1 km/h 77% 0 mm
09:05 25.4 °C 21.1 °C 1001.2 hPa SSW 9.7 km/h 25.7 km/h 77% 0 mm
09:10 25.3 °C 21.2 °C 1001.2 hPa SSW 4.8 km/h 25.7 km/h 78% 0 mm
09:15 25 °C 20.9 °C 1001.2 hPa SSW 8 km/h 22.5 km/h 78% 0 mm
09:20 24.8 °C 20.7 °C 1001.2 hPa SSW 12.9 km/h 29 km/h 78% 0 mm
09:25 24.6 °C 20.7 °C 1000.9 hPa SSW 8 km/h 29 km/h 79% 0 mm
09:30 24.5 °C 20.6 °C 1000.9 hPa SSW 11.3 km/h 25.7 km/h 79% 0 mm
09:35 24.4 °C 20.7 °C 1000.9 hPa SSW 8 km/h 25.7 km/h 80% 0 mm
09:40 24.3 °C 20.6 °C 1000.6 hPa SW 6.4 km/h 22.5 km/h 80% 0 mm
09:45 24.2 °C 20.7 °C 1000.6 hPa SW 9.7 km/h 27.4 km/h 81% 0 mm
09:50 24.1 °C 20.8 °C 1000.6 hPa SSW 9.7 km/h 27.4 km/h 82% 0 mm
09:55 23.9 °C 20.7 °C 1000.6 hPa SSW 8 km/h 25.7 km/h 82% 0 mm
10:00 23.9 °C 20.7 °C 999.9 hPa SSW 8 km/h 22.5 km/h 82% 0 mm
10:05 23.9 °C 20.6 °C 999.9 hPa SW 8 km/h 25.7 km/h 82% 0 mm
10:10 23.8 °C 20.8 °C 999.9 hPa SSW 8 km/h 25.7 km/h 83% 0 mm
10:15 23.9 °C 20.8 °C 999.9 hPa SSW 9.7 km/h 25.7 km/h 83% 0 mm
10:20 24 °C 20.7 °C 1000.2 hPa SSW 12.9 km/h 29 km/h 82% 0 mm
10:25 24.3 °C 21.1 °C 999.9 hPa SSW 9.7 km/h 29 km/h 82% 0 mm
10:35 24.8 °C 21.1 °C 999.9 hPa SSW 12.9 km/h 29 km/h 80% 0 mm
10:40 24.9 °C 21 °C 999.9 hPa SSW 6.4 km/h 29 km/h 79% 0 mm
10:45 25.1 °C 21.2 °C 999.9 hPa SSW 12.9 km/h 32.2 km/h 79% 0 mm
10:50 25.2 °C 21.3 °C 999.5 hPa SSW 9.7 km/h 32.2 km/h 79% 0 mm
10:55 25.3 °C 21.4 °C 999.5 hPa SSW 6.4 km/h 27.4 km/h 79% 0 mm
11:00 25.4 °C 21.3 °C 999.5 hPa SSW 11.3 km/h 29 km/h 78% 0 mm
11:05 25.6 °C 21.5 °C 999.5 hPa SSW 12.9 km/h 35.4 km/h 78% 0 mm
11:10 25.8 °C 21.7 °C 999.5 hPa SSW 11.3 km/h 35.4 km/h 78% 0 mm
11:15 26.1 °C 21.6 °C 999.5 hPa SW 14.5 km/h 29 km/h 76% 0 mm
11:20 26.3 °C 21.7 °C 999.2 hPa SW 16.1 km/h 35.4 km/h 76% 0 mm
11:25 26.5 °C 22.2 °C 999.2 hPa SW 8 km/h 35.4 km/h 77% 0 mm
11:30 26.9 °C 22.2 °C 998.9 hPa SSW 14.5 km/h 30.6 km/h 75% 0 mm
11:40 27.4 °C 22.3 °C 998.9 hPa SW 16.1 km/h 32.2 km/h 74% 0 mm
11:45 27.7 °C 22.8 °C 998.9 hPa SW 8 km/h 29 km/h 75% 0 mm
11:50 27.8 °C 22.3 °C 998.9 hPa SW 17.7 km/h 33.8 km/h 72% 0 mm
11:55 28 °C 22.7 °C 998.9 hPa SSW 8 km/h 33.8 km/h 73% 0 mm
12:00 28.2 °C 22.4 °C 998.5 hPa SW 14.5 km/h 35.4 km/h 71% 0 mm
12:05 28.1 °C 22.8 °C 998.9 hPa SW 11.3 km/h 35.4 km/h 73% 0 mm
12:10 28.2 °C 22.7 °C 998.5 hPa SW 9.7 km/h 30.6 km/h 72% 0 mm
12:15 28.2 °C 22.7 °C 998.9 hPa SW 12.9 km/h 25.7 km/h 72% 0 mm
12:20 28.2 °C 22.4 °C 998.9 hPa SW 12.9 km/h 32.2 km/h 71% 0 mm
12:25 27.8 °C 22.3 °C 998.9 hPa SW 19.3 km/h 37 km/h 72% 0 mm
12:30 27.7 °C 22.4 °C 998.9 hPa SSW 14.5 km/h 37 km/h 73% 0 mm
12:35 27.8 °C 22.5 °C 998.9 hPa SW 8 km/h 35.4 km/h 73% 0 mm
12:40 27.9 °C 22.7 °C 998.9 hPa SW 8 km/h 35.4 km/h 73% 0 mm
12:45 28.1 °C 22.8 °C 998.9 hPa SW 16.1 km/h 30.6 km/h 73% 0 mm
12:50 28.1 °C 22.8 °C 998.9 hPa SW 9.7 km/h 30.6 km/h 73% 0 mm
12:55 28 °C 22.7 °C 998.9 hPa SW 12.9 km/h 27.4 km/h 73% 0 mm
13:00 28.3 °C 23 °C 998.9 hPa SW 12.9 km/h 27.4 km/h 73% 0 mm
13:05 28.5 °C 23.2 °C 998.9 hPa SW 9.7 km/h 27.4 km/h 73% 0 mm
13:10 28.7 °C 22.9 °C 998.9 hPa SW 14.5 km/h 30.6 km/h 71% 0 mm
13:15 28.9 °C 23.3 °C 998.9 hPa SW 11.3 km/h 30.6 km/h 72% 0 mm
13:20 29.2 °C 23.9 °C 998.5 hPa SSW 9.7 km/h 29 km/h 73% 0 mm
13:25 29.4 °C 23.4 °C 998.5 hPa SSW 14.5 km/h 29 km/h 70% 0 mm
13:30 29.7 °C 23.4 °C 998.5 hPa SW 19.3 km/h 33.8 km/h 69% 0 mm
13:35 30 °C 24.2 °C 998.5 hPa SW 12.9 km/h 40.2 km/h 71% 0 mm
13:40 30.2 °C 24.2 °C 998.5 hPa WSW 6.4 km/h 40.2 km/h 70% 0 mm
13:50 30.3 °C 24.3 °C 998.5 hPa SW 12.9 km/h 25.7 km/h 70% 0 mm
13:55 30.4 °C 24.1 °C 998.5 hPa SW 8 km/h 25.7 km/h 69% 0 mm
14:00 30.7 °C 24.4 °C 998.5 hPa SW 8 km/h 22.5 km/h 69% 0 mm
14:05 31.1 °C 24.7 °C 998.5 hPa SW 9.7 km/h 24.1 km/h 69% 0 mm
14:10 31 °C 24.7 °C 998.9 hPa SW 11.3 km/h 24.1 km/h 69% 0 mm
14:15 30.9 °C 24.6 °C 998.9 hPa SW 6.4 km/h 22.5 km/h 69% 0 mm
14:20 30.9 °C 24.8 °C 998.9 hPa SW 4.8 km/h 20.9 km/h 70% 0 mm
14:25 30.9 °C 24.6 °C 998.9 hPa WSW 4.8 km/h 20.9 km/h 69% 0 mm
14:30 30.9 °C 24.8 °C 998.9 hPa WSW 4.8 km/h 17.7 km/h 70% 0 mm
14:35 30.9 °C 24.3 °C 998.9 hPa WSW 4.8 km/h 19.3 km/h 68% 0 mm
14:40 31.3 °C 25.9 °C 998.9 hPa SW 6.4 km/h 19.3 km/h 73% 0 mm
14:45 31.5 °C 25.4 °C 998.9 hPa West 4.8 km/h 19.3 km/h 70% 0 mm
14:50 31.8 °C 25.2 °C 998.5 hPa SW 11.3 km/h 22.5 km/h 68% 0 mm
14:55 32.1 °C 25.7 °C 998.5 hPa SW 1.6 km/h 22.5 km/h 69% 0 mm
15:00 32.4 °C 25.7 °C 998.5 hPa West 3.2 km/h 20.9 km/h 68% 0 mm
15:05 32.6 °C 24.7 °C 998.5 hPa WSW 6.4 km/h 20.9 km/h 63% 0 mm
15:10 32.7 °C 25 °C 998.5 hPa WSW 3.2 km/h 20.9 km/h 64% 0 mm
15:15 32.8 °C 24.6 °C 998.5 hPa WSW 14.5 km/h 27.4 km/h 62% 0 mm
15:20 32.9 °C 25.2 °C 998.5 hPa WSW 11.3 km/h 27.4 km/h 64% 0 mm
15:25 33.3 °C 24.7 °C 998.5 hPa West 12.9 km/h 20.9 km/h 61% 0 mm
15:30 33.5 °C 24.4 °C 998.5 hPa WSW 9.7 km/h 32.2 km/h 59% 0 mm
15:35 33.6 °C 24.8 °C 998.5 hPa West 11.3 km/h 32.2 km/h 60% 0 mm
15:40 33.7 °C 24.9 °C 998.5 hPa WSW 9.7 km/h 27.4 km/h 60% 0 mm
15:45 33.8 °C 24.4 °C 998.5 hPa WNW 16.1 km/h 27.4 km/h 58% 0 mm
15:55 33.4 °C 23.8 °C 998.5 hPa West 11.3 km/h 33.8 km/h 57% 0 mm
16:00 33.1 °C 24.6 °C 998.5 hPa WSW 4.8 km/h 33.8 km/h 61% 0 mm
16:05 33.2 °C 24.1 °C 998.5 hPa West 9.7 km/h 22.5 km/h 59% 0 mm
16:10 32.6 °C 24.1 °C 998.9 hPa WSW 6.4 km/h 19.3 km/h 61% 0 mm
16:15 32 °C 24.1 °C 998.9 hPa West 3.2 km/h 19.3 km/h 63% 0 mm
16:20 32 °C 24.1 °C 998.9 hPa WSW 3.2 km/h 12.9 km/h 63% 0 mm
16:30 32.2 °C 24.3 °C 998.9 hPa WSW 1.6 km/h 16.1 km/h 63% 0 mm
16:35 32 °C 24.6 °C 998.9 hPa West 4.8 km/h 14.5 km/h 65% 0 mm
16:40 31.8 °C 24.7 °C 998.9 hPa WNW 4.8 km/h 14.5 km/h 66% 0 mm
16:45 31.8 °C 24.7 °C 999.2 hPa WSW 4.8 km/h 14.5 km/h 66% 0 mm
16:50 31.8 °C 24.1 °C 999.2 hPa West 1.6 km/h 12.9 km/h 64% 0 mm
16:55 31.6 °C 24.4 °C 999.2 hPa West 1.6 km/h 11.3 km/h 66% 0 mm
17:00 31.7 °C 24.3 °C 999.2 hPa West 6.4 km/h 12.9 km/h 65% 0 mm
17:05 31.8 °C 24.2 °C 999.2 hPa WSW 3.2 km/h 20.9 km/h 64% 0 mm
17:10 31.8 °C 24.2 °C 999.2 hPa WSW 3.2 km/h 20.9 km/h 64% 0 mm
17:15 31.6 °C 24.2 °C 999.2 hPa WSW 1.6 km/h 11.3 km/h 65% 0 mm
17:20 31.3 °C 23.4 °C 999.2 hPa West 4.8 km/h 14.5 km/h 63% 0 mm
17:30 31.3 °C 24.7 °C 999.5 hPa West 1.6 km/h 12.9 km/h 68% 0 mm
17:35 31.6 °C 24.7 °C 999.5 hPa West 1.6 km/h 11.3 km/h 67% 0 mm
17:40 31.6 °C 24 °C 999.5 hPa WSW 3.2 km/h 14.5 km/h 64% 0 mm
17:45 31.3 °C 24.5 °C 999.5 hPa WSW 3.2 km/h 16.1 km/h 67% 0 mm
17:50 31.1 °C 24.3 °C 999.5 hPa West 1.6 km/h 16.1 km/h 67% 0 mm
17:55 31.2 °C 24.6 °C 999.5 hPa WSW 6.4 km/h 16.1 km/h 68% 0 mm
18:00 31.6 °C 24.4 °C 999.5 hPa WSW 3.2 km/h 16.1 km/h 66% 0 mm
18:05 31.6 °C 24.2 °C 999.5 hPa WSW 6.4 km/h 22.5 km/h 65% 0 mm
18:10 31.5 °C 24.4 °C 999.5 hPa WSW 4.8 km/h 22.5 km/h 66% 0 mm
18:15 31.7 °C 24.3 °C 999.5 hPa WSW 4.8 km/h 20.9 km/h 65% 0 mm
18:20 31.9 °C 24.5 °C 999.5 hPa West 4.8 km/h 20.9 km/h 65% 0 mm
18:25 32.1 °C 24.9 °C 999.5 hPa West 3.2 km/h 12.9 km/h 66% 0 mm
18:30 32.1 °C 24.7 °C 999.9 hPa WSW 3.2 km/h 17.7 km/h 65% 0 mm
18:35 32 °C 24.6 °C 999.9 hPa WSW 1.6 km/h 17.7 km/h 65% 0 mm
18:45 31.7 °C 24.1 °C 999.9 hPa WSW 3.2 km/h 22.5 km/h 64% 0 mm
18:50 31.6 °C 24.2 °C 999.9 hPa WSW 3.2 km/h 22.5 km/h 65% 0 mm
18:55 31.4 °C 24.3 °C 999.9 hPa WSW 1.6 km/h 16.1 km/h 66% 0 mm
19:00 31.3 °C 24.5 °C 999.9 hPa WSW 1.6 km/h 11.3 km/h 67% 0 mm
19:05 31.1 °C 24 °C 1000.2 hPa WSW 1.6 km/h 11.3 km/h 66% 0 mm
19:10 31.1 °C 24.2 °C 1000.2 hPa WSW 4.8 km/h 12.9 km/h 67% 0 mm
19:15 30.8 °C 24 °C 1000.2 hPa SW 4.8 km/h 12.9 km/h 67% 0 mm
19:20 30.8 °C 24.2 °C 1000.2 hPa Calm   12.9 km/h 68% 0 mm
19:25 30.6 °C 24.1 °C 1000.2 hPa Calm   11.3 km/h 68% 0 mm
19:30 30.6 °C 24.1 °C 1000.2 hPa SW 1.6 km/h 8 km/h 68% 0 mm
19:35 30.6 °C 24.2 °C 1000.2 hPa Calm   8 km/h 69% 0 mm
19:40 30.4 °C 24.1 °C 1000.6 hPa SSW 4.8 km/h 11.3 km/h 69% 0 mm
19:45 30.2 °C 24.2 °C 1000.6 hPa WSW 1.6 km/h 14.5 km/h 70% 0 mm
19:50 30.1 °C 24.1 °C 1000.6 hPa SW 1.6 km/h 14.5 km/h 70% 0 mm
19:55 29.9 °C 23.7 °C 1000.6 hPa SW 1.6 km/h 11.3 km/h 69% 0 mm
20:00 29.9 °C 24.1 °C 1000.6 hPa Calm   11.3 km/h 71% 0 mm
20:05 29.8 °C 23.9 °C 1000.6 hPa Calm   11.3 km/h 71% 0 mm
20:15 29.4 °C 23.8 °C 1000.2 hPa SSW 3.2 km/h 11.3 km/h 72% 0 mm
20:20 29.2 °C 23.8 °C 999.9 hPa SW 1.6 km/h 11.3 km/h 73% 0 mm
20:25 29 °C 23.7 °C 1000.2 hPa WSW 3.2 km/h 11.3 km/h 73% 0 mm
20:30 29 °C 23.7 °C 1000.2 hPa SW 1.6 km/h 14.5 km/h 73% 0 mm
20:35 28.9 °C 23.6 °C 1000.2 hPa SW 1.6 km/h 14.5 km/h 73% 0 mm
20:40 28.9 °C 23.6 °C 1000.6 hPa SSW 3.2 km/h 16.1 km/h 73% 0 mm
20:45 28.9 °C 23.6 °C 1000.6 hPa SSW 1.6 km/h 16.1 km/h 73% 0 mm
20:50 28.9 °C 23.6 °C 1000.6 hPa Calm   14.5 km/h 73% 0 mm
20:55 28.8 °C 23.5 °C 1000.6 hPa SW 4.8 km/h 14.5 km/h 73% 0 mm
21:00 28.8 °C 23.5 °C 1000.9 hPa Calm   14.5 km/h 73% 0 mm
21:05 28.8 °C 23.4 °C 1000.9 hPa SW 3.2 km/h 11.3 km/h 73% 0 mm
21:10 28.7 °C 23.3 °C 1000.9 hPa SW 6.4 km/h 14.5 km/h 73% 0 mm
21:15 28.7 °C 23.3 °C 1001.2 hPa SW 1.6 km/h 14.5 km/h 73% 0 mm
21:20 28.7 °C 23.3 °C 1001.2 hPa WSW 3.2 km/h 11.3 km/h 73% 0 mm
21:25 28.7 °C 23.3 °C 1000.9 hPa SW 3.2 km/h 12.9 km/h 73% 0 mm
21:30 28.6 °C 23.5 °C 1000.9 hPa Calm   12.9 km/h 74% 0 mm
21:35 28.4 °C 23.3 °C 1000.9 hPa SSW 1.6 km/h 9.7 km/h 74% 0 mm
21:40 28.3 °C 23.2 °C 1000.9 hPa SW 4.8 km/h 12.9 km/h 74% 0 mm
21:45 28.4 °C 23.4 °C 1000.9 hPa WSW 1.6 km/h 14.5 km/h 74% 0 mm
21:50 28.6 °C 23.5 °C 1001.2 hPa WSW 1.6 km/h 17.7 km/h 74% 0 mm
21:55 28.7 °C 23.3 °C 1000.9 hPa SW 3.2 km/h 17.7 km/h 73% 0 mm
22:00 28.7 °C 23.4 °C 1000.9 hPa SW 3.2 km/h 17.7 km/h 73% 0 mm
22:05 28.7 °C 23.3 °C 1001.2 hPa SW 3.2 km/h 16.1 km/h 73% 0 mm
22:10 28.7 °C 23.3 °C 1001.2 hPa Calm   16.1 km/h 73% 0 mm
22:15 28.6 °C 23.2 °C 1001.6 hPa SW 1.6 km/h 11.3 km/h 73% 0 mm
22:20 28.3 °C 23.3 °C 1001.2 hPa SW 3.2 km/h 11.3 km/h 74% 0 mm
22:25 28.1 °C 23.3 °C 1001.6 hPa Calm   8 km/h 75% 0 mm
22:30 27.8 °C 23.2 °C 1001.6 hPa SW 1.6 km/h 8 km/h 76% 0 mm
22:35 27.5 °C 23.1 °C 1001.6 hPa Calm   8 km/h 77% 0 mm
22:40 27.2 °C 23.1 °C 1001.2 hPa SW 1.6 km/h 8 km/h 78% 0 mm
22:45 27 °C 23.1 °C 1001.2 hPa Calm   8 km/h 79% 0 mm
22:50 26.8 °C 22.9 °C 1001.6 hPa Calm   9.7 km/h 79% 0 mm
22:55 26.7 °C 22.9 °C 1001.6 hPa Calm   9.7 km/h 80% 0 mm
23:00 26.6 °C 23.1 °C 1001.2 hPa Calm   9.7 km/h 81% 0 mm
23:05 26.4 °C 22.9 °C 1001.2 hPa SSW 1.6 km/h 9.7 km/h 81% 0 mm
23:10 26.6 °C 23.1 °C 1001.6 hPa SSW 1.6 km/h 9.7 km/h 81% 0 mm
23:15 26.6 °C 22.9 °C 1001.6 hPa Calm   9.7 km/h 80% 0 mm
23:20 26.6 °C 22.8 °C 1001.6 hPa SW 1.6 km/h 6.4 km/h 80% 0 mm
23:25 26.5 °C 23 °C 1001.6 hPa SSW 1.6 km/h 6.4 km/h 81% 0 mm
23:30 26.5 °C 23 °C 1001.6 hPa SW 3.2 km/h 11.3 km/h 81% 0 mm
23:35 26.6 °C 22.8 °C 1001.6 hPa SW 3.2 km/h 11.3 km/h 80% 0 mm
23:40 26.7 °C 22.9 °C 1001.6 hPa SW 4.8 km/h 14.5 km/h 80% 0 mm
23:45 26.7 °C 22.9 °C 1001.6 hPa SW 1.6 km/h 14.5 km/h 80% 0 mm
23:50 26.7 °C 22.9 °C 1001.9 hPa SSW 1.6 km/h 8 km/h 80% 0 mm
23:55 26.8 °C 22.9 °C 1002.3 hPa SW 3.2 km/h 12.9 km/h 79% 0 mm
Westford Weather
Compliments of Weather Underground

 
 
Current Radar Loop:

Copyright © WestfordWeather.net 2007-2014. All rights reserved.